Time;durP1;ratioP1;P1;durP2;ratioP2;P2;SDS_P1;SDS_P2;PMS_P1;PMS_P2;Temp;Humidity;BMP_temperature;BMP_pressure;BME280_temperature;BME280_humidity;BME280_pressure;Samples;Min_cycle;Max_cycle;Signal;HPM_P1;HPM_P2
2022/07/15 00:02:08;;;;;;;2.50;2.40;;;;;;;22.54;75.73;99388.44;5128420;27;20206;-66
2022/07/15 00:04:35;;;;;;;2.90;2.70;;;;;;;22.51;76.26;99388.69;5121410;27;20275;-66
2022/07/15 00:07:02;;;;;;;2.57;2.47;;;;;;;22.44;76.26;99382.28;5122290;27;20198;-66
2022/07/15 00:12:10;;;;;;;2.07;1.97;;;;;;;22.35;76.02;99380.41;5121206;27;20674;-66
2022/07/15 00:14:38;;;;;;;2.73;2.63;;;;;;;22.31;76.01;99381.59;5123860;27;20661;-66
2022/07/15 00:17:06;;;;;;;2.53;2.30;;;;;;;22.25;76.17;99376.84;5128841;27;20249;-67
2022/07/15 00:19:33;;;;;;;2.07;1.97;;;;;;;22.21;76.33;99383.25;5119565;27;20673;-66
2022/07/15 00:22:00;;;;;;;1.93;1.83;;;;;;;22.21;75.55;99385.84;5125433;27;20198;-66
2022/07/15 00:24:27;;;;;;;2.60;2.17;;;;;;;22.20;75.45;99374.59;5118466;27;20199;-66
2022/07/15 00:26:54;;;;;;;1.70;1.60;;;;;;;22.22;75.10;99377.09;5130931;27;20212;-66
2022/07/15 00:29:20;;;;;;;1.83;1.80;;;;;;;22.20;74.91;99373.75;5122403;27;20570;-66
2022/07/15 00:31:49;;;;;;;2.90;2.77;;;;;;;22.22;74.23;99374.47;5127639;27;20220;-66
2022/07/15 00:34:16;;;;;;;2.27;2.17;;;;;;;22.20;74.12;99377.19;5126810;27;20593;-66
2022/07/15 00:36:43;;;;;;;1.83;1.83;;;;;;;22.19;73.53;99378.16;5122140;27;20260;-67
2022/07/15 00:39:10;;;;;;;1.83;1.77;;;;;;;22.16;73.68;99370.56;5125681;27;20214;-65
2022/07/15 00:41:37;;;;;;;2.10;2.03;;;;;;;22.12;73.27;99371.75;5127169;27;20241;-66
2022/07/15 00:44:04;;;;;;;2.07;2.00;;;;;;;22.09;73.05;99373.78;5121324;27;20247;-67
2022/07/15 00:46:32;;;;;;;1.90;1.90;;;;;;;22.04;73.10;99384.56;5130282;27;20666;-66
2022/07/15 00:49:01;;;;;;;2.00;1.90;;;;;;;21.98;73.21;99369.38;5121557;27;20198;-67
2022/07/15 00:51:27;;;;;;;2.10;2.00;;;;;;;21.94;73.65;99366.16;5128117;27;20233;-66
2022/07/15 00:53:56;;;;;;;2.30;2.20;;;;;;;21.82;74.16;99354.03;5127141;27;20192;-67
2022/07/15 00:56:27;;;;;;;3.10;2.03;;;;;;;21.88;74.70;99365.78;5129935;27;20634;-66
2022/07/15 00:58:54;;;;;;;2.47;2.37;;;;;;;21.80;75.38;99366.38;5124001;27;20217;-67
2022/07/15 01:01:22;;;;;;;2.33;2.00;;;;;;;21.77;75.52;99361.41;5118841;27;20196;-66
2022/07/15 01:03:49;;;;;;;2.00;2.00;;;;;;;21.75;75.15;99371.09;5116563;27;20198;-67
2022/07/15 01:06:17;;;;;;;1.77;1.73;;;;;;;21.62;75.48;99367.75;5124812;27;20207;-65
2022/07/15 01:08:44;;;;;;;1.93;1.83;;;;;;;21.53;76.13;99363.25;5123210;27;20670;-66
2022/07/15 01:11:11;;;;;;;2.40;2.30;;;;;;;21.45;76.50;99363.81;5125480;27;20208;-66
2022/07/15 01:13:38;;;;;;;2.23;2.13;;;;;;;21.40;76.65;99358.13;5124292;27;20200;-66
2022/07/15 01:16:06;;;;;;;2.37;2.27;;;;;;;21.29;77.19;99359.91;5123730;27;20201;-66
2022/07/15 01:18:32;;;;;;;2.37;2.27;;;;;;;21.12;77.57;99344.66;5123386;27;20218;-66
2022/07/15 01:21:01;;;;;;;1.80;1.70;;;;;;;21.11;77.59;99348.19;5128278;27;20211;-66
2022/07/15 01:23:27;;;;;;;1.80;1.80;;;;;;;21.10;77.19;99354.38;5130531;27;20196;-66
2022/07/15 01:25:55;;;;;;;1.83;1.77;;;;;;;21.03;77.36;99353.13;5134184;27;20586;-66
2022/07/15 01:28:21;;;;;;;2.53;2.43;;;;;;;20.93;77.55;99352.97;5134006;27;20232;-67
2022/07/15 01:30:49;;;;;;;2.00;1.90;;;;;;;20.82;77.89;99343.34;5131167;27;20274;-66
2022/07/15 01:33:16;;;;;;;1.93;1.83;;;;;;;20.83;77.61;99341.56;5123226;27;20196;-66
2022/07/15 01:35:43;;;;;;;10.50;2.33;;;;;;;20.82;76.95;99340.72;5123433;27;20203;-66
2022/07/15 01:38:11;;;;;;;2.40;2.30;;;;;;;20.83;76.27;99337.19;5121085;27;20255;-66
2022/07/15 01:40:38;;;;;;;2.00;2.00;;;;;;;20.84;75.56;99344.03;5125984;27;20237;-66
2022/07/15 01:43:05;;;;;;;1.60;1.60;;;;;;;20.84;75.88;99349.25;5120335;27;20677;-66
2022/07/15 01:45:31;;;;;;;1.83;1.80;;;;;;;20.83;75.62;99347.59;5126573;27;20196;-66
2022/07/15 01:47:58;;;;;;;2.03;1.93;;;;;;;20.84;75.88;99346.66;5129771;27;20211;-66
2022/07/15 01:50:24;;;;;;;2.53;1.80;;;;;;;20.83;76.14;99349.38;5133346;27;20694;-67
2022/07/15 01:52:51;;;;;;;2.20;2.10;;;;;;;20.84;76.68;99357.06;5133387;27;20199;-66
2022/07/15 01:55:20;;;;;;;3.10;2.80;;;;;;;20.83;78.43;99358.03;5133304;27;20207;-67
2022/07/15 01:57:47;;;;;;;2.40;2.30;;;;;;;20.81;80.01;99359.91;5133509;27;20212;-66
2022/07/15 02:00:16;;;;;;;2.43;2.33;;;;;;;20.82;81.23;99355.53;5130598;27;20214;-66
2022/07/15 02:02:43;;;;;;;2.80;2.70;;;;;;;20.82;81.53;99360.75;5133638;27;20590;-66
2022/07/15 02:05:10;;;;;;;2.30;2.20;;;;;;;20.82;81.73;99351.16;5132862;27;20313;-66
2022/07/15 02:07:38;;;;;;;2.80;2.60;;;;;;;20.74;82.14;99348.25;5129166;27;20199;-66
2022/07/15 02:10:06;;;;;;;2.50;2.40;;;;;;;20.73;82.42;99341.41;5132908;27;20287;-66
2022/07/15 02:12:34;;;;;;;2.20;2.20;;;;;;;20.75;82.70;99354.31;5128881;27;20567;-66
2022/07/15 02:15:01;;;;;;;2.10;2.00;;;;;;;20.73;82.32;99356.19;5125771;27;20195;-66
2022/07/15 02:17:29;;;;;;;2.53;2.33;;;;;;;20.70;82.71;99362.47;5120148;27;20200;-66
2022/07/15 02:19:56;;;;;;;2.00;1.90;;;;;;;20.68;82.59;99353.91;5126766;27;20248;-66
2022/07/15 02:22:23;;;;;;;2.23;2.23;;;;;;;20.68;82.18;99359.13;5126812;27;20201;-66
2022/07/15 02:24:50;;;;;;;2.30;2.20;;;;;;;20.64;82.41;99362.06;5123930;27;20202;-66
2022/07/15 02:27:17;;;;;;;2.50;2.40;;;;;;;20.55;83.14;99358.34;5125625;27;20222;-66
2022/07/15 02:29:45;;;;;;;2.77;2.67;;;;;;;20.54;83.25;99361.91;5121330;27;20201;-66
2022/07/15 02:32:12;;;;;;;2.10;2.00;;;;;;;20.47;83.17;99362.44;5126489;27;20215;-66
2022/07/15 02:34:38;;;;;;;2.70;2.60;;;;;;;20.43;83.16;99362.66;5117867;27;20192;-66
2022/07/15 02:37:05;;;;;;;2.60;2.50;;;;;;;20.40;82.98;99369.84;5119772;27;20623;-65
2022/07/15 02:39:32;;;;;;;2.37;2.27;;;;;;;20.38;82.94;99366.53;5123491;27;20270;-67
2022/07/15 02:41:59;;;;;;;2.83;2.60;;;;;;;20.36;82.89;99374.44;5125580;27;20198;-66
2022/07/15 02:44:26;;;;;;;2.57;2.07;;;;;;;20.32;82.46;99372.19;5124841;27;20217;-66
2022/07/15 02:46:54;;;;;;;2.60;2.50;;;;;;;20.21;82.95;99354.69;5127124;27;20662;-66
2022/07/15 02:49:20;;;;;;;4.60;2.27;;;;;;;20.24;82.54;99364.88;5131779;27;20246;-66
2022/07/15 02:51:47;;;;;;;3.00;2.90;;;;;;;20.19;82.57;99361.78;5132111;27;20234;-66
2022/07/15 02:54:14;;;;;;;2.70;2.60;;;;;;;20.19;82.03;99366.16;5132269;27;20199;-64
2022/07/15 02:56:41;;;;;;;4.10;2.60;;;;;;;20.19;81.90;99366.16;5132136;27;20631;-67
2022/07/15 02:59:08;;;;;;;4.73;2.53;;;;;;;20.17;81.78;99368.84;5129142;27;20743;-66
2022/07/15 03:01:34;;;;;;;3.77;2.07;;;;;;;20.17;81.80;99362.78;5121956;27;20652;-66
2022/07/15 03:04:04;;;;;;;4.33;3.03;;;;;;;20.16;81.88;99366.34;5130715;28;20200;-66
2022/07/15 03:06:31;;;;;;;2.67;2.57;;;;;;;20.18;81.29;99364.47;5132140;27;20210;-66
2022/07/15 03:08:58;;;;;;;5.10;2.87;;;;;;;20.18;81.40;99365.31;5132266;28;20205;-67
2022/07/15 03:11:25;;;;;;;3.33;2.47;;;;;;;20.18;81.49;99369.69;5124037;28;20608;-65
2022/07/15 03:13:52;;;;;;;2.67;2.57;;;;;;;20.15;81.62;99368.13;5115518;28;20256;-66
2022/07/15 03:16:19;;;;;;;3.20;3.10;;;;;;;20.16;81.93;99368.97;5119810;28;20213;-66
2022/07/15 03:18:45;;;;;;;2.90;2.63;;;;;;;20.13;82.27;99358.75;5117087;28;20593;-66
2022/07/15 03:21:14;;;;;;;2.27;2.23;;;;;;;20.19;82.54;99363.53;5126736;28;20237;-66
2022/07/15 03:23:40;;;;;;;3.97;2.60;;;;;;;20.19;82.64;99368.75;5129810;28;20688;-66
2022/07/15 03:26:07;;;;;;;2.77;2.67;;;;;;;20.15;83.04;99364.69;5130994;27;20210;-66
2022/07/15 03:28:34;;;;;;;3.10;2.90;;;;;;;20.14;83.42;99368.22;5115262;28;20266;-66
2022/07/15 03:31:01;;;;;;;2.30;2.20;;;;;;;20.05;83.31;99348.88;5123557;28;20667;-66
2022/07/15 03:33:28;;;;;;;10.70;3.03;;;;;;;20.07;83.50;99366.97;5120143;28;20701;-66
2022/07/15 03:35:55;;;;;;;2.73;2.60;;;;;;;20.09;83.47;99363.34;5126304;28;20200;-66
2022/07/15 03:38:23;;;;;;;3.00;2.80;;;;;;;20.12;83.36;99370.09;5123828;28;20682;-66
2022/07/15 03:40:50;;;;;;;3.20;3.10;;;;;;;20.09;82.72;99359.91;5131073;28;20597;-67
2022/07/15 03:43:17;;;;;;;2.87;2.77;;;;;;;20.10;82.75;99370.19;5132054;28;20213;-66
2022/07/15 03:45:43;;;;;;;2.67;2.57;;;;;;;20.19;83.07;99361.78;5116102;27;20199;-65
2022/07/15 03:48:10;;;;;;;2.80;2.70;;;;;;;20.27;82.67;99359.47;5122047;28;20190;-66
2022/07/15 03:50:37;;;;;;;2.73;2.53;;;;;;;20.41;82.37;99363.72;5118817;28;20222;-67
2022/07/15 03:53:04;;;;;;;4.00;2.60;;;;;;;20.51;82.16;99361.28;5129388;28;20194;-67
2022/07/15 03:55:32;;;;;;;4.33;3.03;;;;;;;20.65;81.33;99363.72;5124544;27;20194;-67
2022/07/15 03:57:59;;;;;;;2.80;2.60;;;;;;;20.72;80.02;99363.19;5122950;28;20213;-67
2022/07/15 04:00:26;;;;;;;2.60;2.50;;;;;;;20.80;79.47;99366.06;5129020;27;20209;-67
2022/07/15 04:02:52;;;;;;;7.50;2.60;;;;;;;20.87;79.22;99364.66;5126628;27;20204;-66
2022/07/15 04:05:19;;;;;;;7.40;2.73;;;;;;;20.95;79.16;99362.34;5127760;27;20201;-66
2022/07/15 04:07:46;;;;;;;3.00;2.80;;;;;;;20.98;79.09;99355.22;5122871;27;20197;-66
2022/07/15 04:10:13;;;;;;;2.93;2.77;;;;;;;21.15;79.27;99357.47;5128592;27;20620;-66
2022/07/15 04:12:42;;;;;;;3.83;3.53;;;;;;;21.13;79.63;99354.16;5125363;27;20197;-67
2022/07/15 04:15:09;;;;;;;2.57;2.47;;;;;;;21.31;78.90;99363.19;5118063;27;20656;-66
2022/07/15 04:17:36;;;;;;;4.07;2.80;;;;;;;21.43;79.17;99362.28;5121577;27;20193;-66
2022/07/15 04:20:04;;;;;;;3.27;3.07;;;;;;;21.53;78.21;99375.47;5131717;27;20223;-66
2022/07/15 04:22:31;;;;;;;2.97;2.83;;;;;;;21.69;77.81;99362.91;5125239;27;20644;-67
2022/07/15 04:24:58;;;;;;;3.10;2.97;;;;;;;21.85;77.86;99364.22;5127008;27;20213;-66
2022/07/15 04:27:25;;;;;;;3.80;3.47;;;;;;;22.01;77.13;99360.47;5132203;27;20197;-66
2022/07/15 04:29:53;;;;;;;2.87;2.43;;;;;;;22.18;76.88;99355.59;5124968;27;20198;-66
2022/07/15 04:32:19;;;;;;;3.53;2.60;;;;;;;22.38;75.25;99354.03;5122928;27;20202;-67
2022/07/15 04:34:46;;;;;;;2.80;2.70;;;;;;;22.64;75.57;99357.19;5130087;27;20562;-66
2022/07/15 04:37:13;;;;;;;4.10;2.20;;;;;;;22.87;74.68;99358.81;5120609;27;20198;-66
2022/07/15 04:39:40;;;;;;;2.67;2.57;;;;;;;23.09;72.32;99357.88;5126782;27;20210;-66
2022/07/15 04:42:07;;;;;;;2.67;2.47;;;;;;;23.32;71.28;99354.19;5123411;27;20693;-66
2022/07/15 04:44:33;;;;;;;3.50;2.40;;;;;;;23.55;70.79;99350.50;5122752;27;20205;-66
2022/07/15 04:47:02;;;;;;;3.50;2.60;;;;;;;23.78;69.10;99357.22;5130921;27;20212;-67
2022/07/15 04:52:14;;;;;;;3.13;1.93;;;;;;;24.15;65.55;99359.34;5133719;27;20220;-66
2022/07/15 04:54:41;;;;;;;2.93;2.27;;;;;;;24.18;62.03;99353.84;5134158;27;20190;-66
2022/07/15 04:57:07;;;;;;;3.13;2.20;;;;;;;24.18;62.11;99354.66;5119886;27;20199;-66
2022/07/15 04:59:34;;;;;;;4.33;1.67;;;;;;;24.24;59.62;99353.31;5125124;27;20203;-66
2022/07/15 05:02:02;;;;;;;2.10;2.00;;;;;;;24.33;59.60;99353.31;5127237;27;20277;-67
2022/07/15 05:04:29;;;;;;;3.07;1.80;;;;;;;24.41;58.58;99350.03;5128178;27;20201;-66
2022/07/15 05:06:56;;;;;;;1.40;1.40;;;;;;;24.52;57.22;99349.94;5130087;27;20590;-66
2022/07/15 05:09:23;;;;;;;3.17;1.60;;;;;;;24.76;59.02;99362.66;5126364;27;20744;-66
2022/07/15 05:11:50;;;;;;;1.43;1.43;;;;;;;24.89;57.02;99360.63;5129054;27;20502;-67
2022/07/15 05:14:16;;;;;;;2.10;2.00;;;;;;;24.96;56.04;99357.31;5127364;27;20202;-66
2022/07/15 05:16:43;;;;;;;2.20;1.70;;;;;;;25.20;55.34;99363.94;5127937;27;20197;-67
2022/07/15 05:19:11;;;;;;;1.73;1.63;;;;;;;25.43;56.11;99367.88;5128560;27;20701;-67
2022/07/15 05:21:38;;;;;;;1.90;1.80;;;;;;;25.61;54.39;99368.88;5130317;27;20237;-67
2022/07/15 05:24:06;;;;;;;2.10;1.97;;;;;;;25.72;53.94;99366.06;5121846;27;20236;-67
2022/07/15 05:26:32;;;;;;;1.80;1.70;;;;;;;25.84;54.93;99353.59;5125862;27;20677;-67
2022/07/15 05:28:59;;;;;;;1.93;1.73;;;;;;;26.07;54.10;99371.47;5128008;27;20198;-68
2022/07/15 05:31:26;;;;;;;4.10;2.17;;;;;;;26.26;53.71;99375.03;5123451;27;20198;-67
2022/07/15 05:33:54;;;;;;;1.43;1.30;;;;;;;26.50;51.06;99377.91;5127239;27;20210;-67
2022/07/15 05:36:22;;;;;;;2.07;1.73;;;;;;;26.70;52.33;99376.81;5129342;27;20198;-67
2022/07/15 05:38:49;;;;;;;6.20;2.70;;;;;;;26.78;50.76;99376.91;5124965;27;20207;-67
2022/07/15 05:41:16;;;;;;;6.63;1.60;;;;;;;26.99;52.68;99374.84;5124857;27;20218;-68
2022/07/15 05:43:43;;;;;;;1.60;1.60;;;;;;;27.23;51.80;99371.59;5126837;27;20667;-67
2022/07/15 05:46:10;;;;;;;5.00;1.57;;;;;;;27.46;52.80;99377.22;5122637;27;20295;-68
2022/07/15 05:48:37;;;;;;;1.57;1.50;;;;;;;27.60;49.56;99381.91;5127808;27;20198;-66
2022/07/15 05:51:04;;;;;;;1.40;1.27;;;;;;;27.67;50.46;99377.69;5121318;27;20225;-67
2022/07/15 05:53:32;;;;;;;1.57;1.47;;;;;;;27.90;53.01;99375.34;5127623;27;20197;-67
2022/07/15 05:55:59;;;;;;;4.07;1.93;;;;;;;28.09;51.72;99378.63;5116315;27;20206;-67
2022/07/15 05:58:27;;;;;;;1.50;1.50;;;;;;;28.19;48.81;99385.56;5123431;27;20210;-66
2022/07/15 06:00:54;;;;;;;1.37;1.17;;;;;;;28.22;52.23;99378.16;5120710;27;20711;-65
2022/07/15 06:03:20;;;;;;;1.70;1.60;;;;;;;28.39;49.59;99382.53;5120487;27;20217;-67
2022/07/15 06:05:47;;;;;;;1.30;1.30;;;;;;;28.64;48.08;99380.78;5120168;27;20681;-67
2022/07/15 06:08:14;;;;;;;1.40;1.40;;;;;;;28.86;48.02;99382.00;5122050;27;20217;-67
2022/07/15 06:10:44;;;;;;;1.50;1.50;;;;;;;29.03;47.78;99370.47;5130383;27;20684;-68
2022/07/15 06:13:11;;;;;;;1.67;1.37;;;;;;;29.35;46.11;99383.69;5129198;27;20574;-68
2022/07/15 06:15:38;;;;;;;1.57;1.50;;;;;;;29.42;47.74;99382.06;5129762;27;20202;-69
2022/07/15 06:18:05;;;;;;;1.67;1.57;;;;;;;29.67;46.58;99382.84;5123481;27;20670;-67
2022/07/15 06:20:32;;;;;;;1.70;1.60;;;;;;;29.84;45.05;99381.00;5117978;27;20224;-68
2022/07/15 06:22:59;;;;;;;1.80;1.70;;;;;;;30.00;44.82;99371.22;5132618;27;20305;-68
2022/07/15 06:25:26;;;;;;;1.33;1.33;;;;;;;30.10;43.83;99379.78;5128138;27;20672;-67
2022/07/15 06:27:54;;;;;;;1.40;1.40;;;;;;;30.02;44.66;99377.16;5125712;27;20193;-68
2022/07/15 06:30:29;;;;;;;2.20;1.60;;;;;;;30.11;45.96;99372.69;5127016;27;20198;-66
2022/07/15 06:32:55;;;;;;;1.38;1.38;;;;;;;30.28;43.30;99376.03;5127870;27;20201;-66
2022/07/15 06:35:22;;;;;;;1.92;1.63;;;;;;;30.54;43.28;99373.97;5115473;27;20202;-66
2022/07/15 06:37:50;;;;;;;1.85;1.40;;;;;;;30.74;42.43;99369.88;5131261;27;20209;-66
2022/07/15 06:40:16;;;;;;;1.40;1.40;;;;;;;30.91;44.49;99360.84;5133299;27;20222;-66
2022/07/15 06:42:43;;;;;;;1.77;1.58;;;;;;;31.14;43.06;99366.97;5117139;27;20577;-65
2022/07/15 06:45:12;;;;;;;4.93;2.10;;;;;;;31.28;42.32;99372.50;5132961;27;20205;-67
2022/07/15 06:47:41;;;;;;;2.65;1.52;;;;;;;31.36;40.88;99364.47;5132967;27;20206;-67
2022/07/15 06:50:09;;;;;;;1.27;1.27;;;;;;;31.60;40.37;99361.63;5132521;27;20288;-68
2022/07/15 06:52:36;;;;;;;7.40;1.83;;;;;;;31.70;41.48;99362.16;5133038;27;20217;-69
2022/07/15 06:55:04;;;;;;;1.63;1.52;;;;;;;31.83;40.22;99357.03;5132756;27;20750;-66
2022/07/15 06:57:30;;;;;;;2.45;1.48;;;;;;;31.93;39.32;99360.25;5125417;27;20281;-68
2022/07/15 06:59:57;;;;;;;1.80;1.50;;;;;;;32.17;38.45;99352.03;5127063;27;20202;-69
2022/07/15 07:02:25;;;;;;;5.45;2.00;;;;;;;32.14;39.65;99359.53;5127656;27;20258;-69
2022/07/15 07:04:52;;;;;;;1.48;1.48;;;;;;;32.30;39.48;99353.19;5131457;27;20673;-69
2022/07/15 07:07:19;;;;;;;3.47;1.63;;;;;;;32.40;38.15;99353.72;5131262;28;20232;-69
2022/07/15 07:09:46;;;;;;;3.75;1.58;;;;;;;32.47;39.38;99351.97;5131398;28;20689;-67
2022/07/15 07:12:13;;;;;;;1.20;1.10;;;;;;;32.71;39.23;99355.13;5123627;27;20205;-66
2022/07/15 07:14:40;;;;;;;1.50;1.40;;;;;;;32.81;37.68;99361.94;5127733;27;20562;-71
2022/07/15 07:17:06;;;;;;;1.60;1.60;;;;;;;32.75;35.82;99359.03;5124056;27;20202;-71
2022/07/15 07:19:35;;;;;;;1.40;1.40;;;;;;;32.84;37.07;99362.38;5126862;28;20566;-69
2022/07/15 07:22:01;;;;;;;1.27;1.27;;;;;;;32.90;35.09;99361.63;5125021;28;20229;-70
2022/07/15 07:24:28;;;;;;;1.05;1.05;;;;;;;33.04;37.07;99363.41;5124053;28;20796;-70
2022/07/15 07:26:55;;;;;;;2.05;1.17;;;;;;;33.30;37.19;99364.66;5129906;28;20205;-70
2022/07/15 07:29:23;;;;;;;1.30;1.30;;;;;;;33.52;36.34;99366.25;5122172;27;20198;-67
2022/07/15 07:31:50;;;;;;;2.22;1.30;;;;;;;33.66;35.45;99368.03;5121047;28;20281;-64
2022/07/15 07:34:17;;;;;;;5.68;1.83;;;;;;;33.72;35.64;99367.25;5120778;27;20285;-66
2022/07/15 07:36:45;;;;;;;1.08;1.00;;;;;;;33.60;34.60;99366.97;5129453;27;20206;-67
2022/07/15 07:39:13;;;;;;;1.35;1.30;;;;;;;33.59;34.06;99361.81;5134337;27;20578;-67
2022/07/15 07:41:40;;;;;;;3.53;1.15;;;;;;;33.73;37.51;99358.25;5128924;27;20315;-68
2022/07/15 07:44:07;;;;;;;20.98;3.72;;;;;;;33.95;37.08;99356.34;5134586;27;20288;-68
2022/07/15 07:46:34;;;;;;;1.98;1.88;;;;;;;33.97;37.80;99364.94;5127112;27;20207;-67
2022/07/15 07:49:02;;;;;;;1.45;1.27;;;;;;;34.25;33.54;99358.53;5133496;27;20206;-68
2022/07/15 07:51:29;;;;;;;1.35;1.35;;;;;;;34.38;32.94;99356.97;5128437;27;20224;-67
2022/07/15 07:53:58;;;;;;;1.52;1.38;;;;;;;34.49;35.89;99346.53;5124639;27;20284;-69
2022/07/15 07:56:24;;;;;;;1.15;1.15;;;;;;;34.49;35.86;99349.19;5126655;27;20726;-68
2022/07/15 07:58:51;;;;;;;1.40;1.30;;;;;;;34.49;33.37;99348.38;5124368;27;20198;-68
2022/07/15 08:01:18;;;;;;;1.17;1.17;;;;;;;34.52;32.45;99350.63;5128589;27;20214;-69
2022/07/15 08:03:45;;;;;;;1.35;1.35;;;;;;;34.55;32.07;99352.91;5131019;27;20206;-68
2022/07/15 08:06:12;;;;;;;1.65;1.60;;;;;;;34.63;34.22;99344.78;5130210;27;20213;-71
2022/07/15 08:08:39;;;;;;;1.75;1.65;;;;;;;34.88;33.10;99347.66;5134500;27;20206;-71
2022/07/15 08:11:07;;;;;;;1.80;1.70;;;;;;;34.85;35.82;99343.56;5130061;27;20202;-70
2022/07/15 08:13:34;;;;;;;1.27;1.17;;;;;;;34.84;35.80;99339.25;5126441;27;20202;-70
2022/07/15 08:16:01;;;;;;;1.67;1.20;;;;;;;34.97;34.74;99336.59;5121138;27;20206;-70
2022/07/15 08:18:28;;;;;;;1.30;1.30;;;;;;;34.99;31.52;99342.56;5132670;27;20569;-70
2022/07/15 08:20:55;;;;;;;1.17;1.17;;;;;;;35.22;31.49;99345.66;5121808;27;20222;-70
2022/07/15 08:23:22;;;;;;;1.00;1.00;;;;;;;35.17;30.91;99342.78;5126903;27;20205;-70
2022/07/15 08:25:51;;;;;;;1.10;1.10;;;;;;;35.26;30.74;99346.88;5128361;27;20567;-69
2022/07/15 08:28:20;;;;;;;1.00;1.00;;;;;;;35.27;31.25;99345.88;5120382;27;20977;-69
2022/07/15 08:30:47;;;;;;;1.13;1.13;;;;;;;35.13;31.70;99346.88;5132799;27;20673;-70
2022/07/15 08:33:14;;;;;;;2.13;1.25;;;;;;;35.27;31.19;99342.38;5131368;27;20202;-69
2022/07/15 08:35:41;;;;;;;1.35;1.20;;;;;;;35.25;31.71;99339.13;5123974;27;20205;-70
2022/07/15 08:38:09;;;;;;;2.60;1.35;;;;;;;35.08;32.49;99333.34;5131084;27;20606;-69
2022/07/15 08:40:38;;;;;;;3.50;1.40;;;;;;;35.10;32.68;99336.63;5129723;27;20202;-72
2022/07/15 08:43:07;;;;;;;1.60;1.50;;;;;;;34.97;33.72;99328.59;5118078;27;20284;-69
2022/07/15 08:45:37;;;;;;;1.45;1.45;;;;;;;34.98;33.03;99324.09;5124780;27;20198;-70
2022/07/15 08:48:05;;;;;;;1.50;1.48;;;;;;;35.23;34.39;99325.16;5122214;27;20210;-70
2022/07/15 08:50:34;;;;;;;2.28;1.25;;;;;;;35.44;33.08;99316.94;5122761;27;20223;-70
2022/07/15 08:53:02;;;;;;;2.15;1.40;;;;;;;35.60;32.73;99327.19;5115592;27;20206;-69
2022/07/15 08:55:29;;;;;;;2.28;1.33;;;;;;;35.70;33.15;99316.91;5130057;27;20697;-69
2022/07/15 08:57:57;;;;;;;22.73;2.75;;;;;;;35.76;36.55;99320.59;5126597;27;20267;-68
2022/07/15 09:00:29;;;;;;;2.35;1.63;;;;;;;36.01;31.75;99318.84;5130852;27;20210;-69
2022/07/15 09:02:59;;;;;;;1.85;1.60;;;;;;;35.86;30.47;99315.63;5129762;27;20213;-68
2022/07/15 09:05:28;;;;;;;3.13;1.77;;;;;;;35.70;31.68;99306.25;5130427;27;20221;-69
2022/07/15 09:08:01;;;;;;;1.23;1.23;;;;;;;35.85;30.63;99307.81;5124525;27;20633;-69
2022/07/15 09:10:49;;;;;;;1.38;1.27;;;;;;;35.96;30.94;99309.84;5124067;27;20689;-68
2022/07/15 09:13:30;;;;;;;1.25;1.25;;;;;;;36.02;31.29;99307.16;5124765;27;20202;-67
2022/07/15 09:16:00;;;;;;;2.25;1.70;;;;;;;36.11;32.43;99313.91;5125520;27;20234;-68
2022/07/15 09:18:31;;;;;;;7.90;1.50;;;;;;;36.26;32.07;99300.28;5122990;27;20198;-67
2022/07/15 09:20:59;;;;;;;2.00;1.80;;;;;;;36.32;31.26;99300.22;5121048;27;20206;-68
2022/07/15 09:23:30;;;;;;;12.20;1.65;;;;;;;36.40;30.68;99290.34;5123371;27;20206;-68
2022/07/15 09:25:59;;;;;;;2.22;1.50;;;;;;;36.46;32.04;99294.81;5116541;27;20221;-68
2022/07/15 09:28:40;;;;;;;1.30;1.30;;;;;;;36.61;32.59;99298.06;5128226;27;20245;-67
2022/07/15 09:34:00;;;;;;;1.27;1.27;;;;;;;36.38;29.44;99298.56;5120687;27;20230;-69
2022/07/15 09:36:29;;;;;;;1.15;1.15;;;;;;;36.07;29.17;99296.66;5127822;27;20684;-68
2022/07/15 09:38:58;;;;;;;2.10;1.20;;;;;;;36.35;30.08;99296.34;5131434;27;20262;-68
2022/07/15 09:41:28;;;;;;;1.10;1.10;;;;;;;36.42;28.79;99293.59;5123886;27;20229;-68
2022/07/15 09:43:58;;;;;;;1.05;1.05;;;;;;;36.27;26.95;99292.06;5123268;27;20201;-71
2022/07/15 09:46:28;;;;;;;2.22;1.00;;;;;;;35.76;29.00;99293.91;5124272;27;20202;-71
2022/07/15 09:48:56;;;;;;;1.40;1.30;;;;;;;35.64;27.49;99290.25;5123296;27;20203;-70
2022/07/15 09:51:24;;;;;;;1.30;1.20;;;;;;;35.62;27.96;99284.28;5114671;27;20579;-69
2022/07/15 09:53:51;;;;;;;1.75;1.50;;;;;;;35.71;27.56;99291.03;5126907;27;20270;-69
2022/07/15 09:56:22;;;;;;;2.05;1.35;;;;;;;35.65;28.32;99283.88;5129287;27;20202;-69
2022/07/15 09:58:50;;;;;;;1.77;1.10;;;;;;;35.38;27.79;99279.63;5121582;27;20259;-70
2022/07/15 10:01:17;;;;;;;0.63;0.63;;;;;;;35.05;26.38;99275.13;5124720;27;20605;-68
2022/07/15 10:03:44;;;;;;;0.90;0.90;;;;;;;35.09;29.55;99276.31;5120082;27;20209;-71
2022/07/15 10:06:15;;;;;;;0.82;0.82;;;;;;;35.15;28.01;99280.91;5124692;27;20252;-70
2022/07/15 10:08:48;;;;;;;1.23;0.90;;;;;;;35.11;26.90;99279.66;5119845;27;20215;-68
2022/07/15 10:11:16;;;;;;;1.05;0.98;;;;;;;35.19;27.93;99276.75;5125458;27;20258;-67
2022/07/15 10:14:08;;;;;;;1.00;1.00;;;;;;;35.23;29.33;99278.00;5129276;27;20206;-68
2022/07/15 10:16:56;;;;;;;1.17;1.08;;;;;;;35.63;28.83;99261.94;5128666;27;20225;-69
2022/07/15 10:19:37;;;;;;;1.00;1.00;;;;;;;36.01;27.46;99259.31;5121917;27;20194;-67
2022/07/15 10:22:20;;;;;;;1.05;1.05;;;;;;;36.08;25.94;99260.94;5131356;27;20226;-68
2022/07/15 10:25:03;;;;;;;1.63;1.45;;;;;;;36.07;28.07;99256.63;5127712;27;20577;-67
2022/07/15 10:27:49;;;;;;;2.75;1.38;;;;;;;35.41;27.75;99252.53;5129672;27;20194;-65
2022/07/15 10:30:20;;;;;;;1.02;1.02;;;;;;;35.58;28.15;99253.69;5122074;27;20202;-68
2022/07/15 10:33:07;;;;;;;1.17;1.17;;;;;;;35.36;27.55;99244.34;5125300;27;20669;-66
2022/07/15 10:35:35;;;;;;;1.15;1.15;;;;;;;35.54;27.29;99244.50;5126730;27;20201;-67
2022/07/15 10:38:30;;;;;;;0.80;0.80;;;;;;;35.65;27.33;99225.19;5125572;27;20209;-66
2022/07/15 10:41:03;;;;;;;1.13;1.13;;;;;;;35.91;27.94;99233.09;5129303;27;20206;-66
2022/07/15 10:43:54;;;;;;;1.35;1.25;;;;;;;35.55;26.12;99230.13;5131587;27;20231;-66
2022/07/15 10:46:25;;;;;;;0.88;0.88;;;;;;;35.51;27.38;99243.06;5121076;27;20661;-66
2022/07/15 10:48:54;;;;;;;1.10;1.00;;;;;;;35.31;26.60;99226.31;5128515;27;20194;-67
2022/07/15 10:51:46;;;;;;;1.23;1.13;;;;;;;35.72;27.30;99223.31;5123125;27;20229;-69
2022/07/15 10:54:48;;;;;;;1.05;1.05;;;;;;;35.57;26.70;99225.41;5128825;27;20206;-69
2022/07/15 10:57:17;;;;;;;1.02;1.02;;;;;;;35.32;27.01;99219.16;5128582;27;20201;-66
2022/07/15 10:59:57;;;;;;;0.70;0.70;;;;;;;35.51;27.62;99220.94;5130165;27;20581;-66
2022/07/15 11:02:26;;;;;;;1.02;1.02;;;;;;;35.44;25.72;99222.78;5118478;28;20214;-66
2022/07/15 11:05:14;;;;;;;1.50;1.35;;;;;;;35.27;28.37;99220.59;5129033;27;20582;-66
2022/07/15 11:07:41;;;;;;;2.78;1.20;;;;;;;35.58;28.57;99222.56;5126297;27;20723;-66
2022/07/15 11:10:22;;;;;;;2.38;1.15;;;;;;;35.97;28.19;99215.41;5126606;27;20206;-67
2022/07/15 11:12:59;;;;;;;1.10;1.10;;;;;;;36.11;26.33;99215.16;5131463;28;20189;-67
2022/07/15 11:15:29;;;;;;;0.93;0.93;;;;;;;36.08;25.47;99218.25;5123540;28;20224;-67
2022/07/15 11:17:57;;;;;;;2.28;0.90;;;;;;;36.16;26.03;99219.81;5124357;27;20217;-67
2022/07/15 11:20:30;;;;;;;1.00;1.00;;;;;;;36.30;26.56;99210.72;5125471;28;20210;-66
2022/07/15 11:22:58;;;;;;;0.80;0.80;;;;;;;36.31;28.63;99202.50;5123743;28;20233;-67
2022/07/15 11:25:29;;;;;;;1.48;0.90;;;;;;;36.33;25.20;99202.25;5118842;28;20208;-70
2022/07/15 11:28:06;;;;;;;1.27;1.27;;;;;;;36.25;27.65;99203.34;5132095;28;20204;-67
2022/07/15 11:30:37;;;;;;;3.13;0.80;;;;;;;36.08;25.75;99207.56;5122830;28;20228;-67
2022/07/15 11:33:07;;;;;;;1.25;1.25;;;;;;;35.83;25.77;99198.66;5133464;28;20257;-66
2022/07/15 11:35:45;;;;;;;0.90;0.90;;;;;;;35.83;27.54;99201.31;5133780;28;20300;-67
2022/07/15 11:38:13;;;;;;;1.50;0.80;;;;;;;35.90;27.27;99199.41;5132531;28;20233;-67
2022/07/15 11:46:16;;;;;;;0.90;0.90;;;;;;;35.70;27.73;99190.72;5125549;28;20280;-68
2022/07/15 11:48:44;;;;;;;2.40;1.17;;;;;;;35.55;26.24;99198.13;5125005;28;20198;-69
2022/07/15 11:51:12;;;;;;;1.20;1.20;;;;;;;35.63;27.28;99187.25;5126744;28;20719;-68
2022/07/15 11:53:44;;;;;;;1.17;1.17;;;;;;;35.84;26.13;99192.28;5131864;27;20218;-67
2022/07/15 11:56:14;;;;;;;1.30;1.30;;;;;;;36.03;26.11;99193.22;5130419;28;20658;-67